LPMA Airport Information

Runway Information
Runway 05 Length 9110 ft width 148 ft
Elevation 147 ft Threshold 480 ft Heading 45
Runway 23 Length 9110 ft Width 148 ft
Elevation 192 ft Threshold 490 ft Heading 225
Airport Frequencies
Type APP Name APP Frequency 119.2 MHZ
Type TWR Name TWR Frequency 118.35 MHZ
Airport Navaids
Type VOR-DME Name Madeira Frequency 112200 KHZ
Type NDB Name Madeira Frequency 318 KHZ
Airport Weather Information & NOTAM
ADDS - METARS form results

(1325 UTC 25 May 2019)
Data provider http://aviationweather.gov/metar/data/
 
METAR text: LPMA 251300Z 36012G23KT 280V040 9999 FEW015 25/10 Q1020
Conditions at: LPMA (FUNCHAL/MADEIRA , PT) observed 1300 UTC 25 May 2019
Temperature: 25.0°C (77°F)
Dewpoint: 10.0°C (50°F) [RH = 39%]
Pressure (altimeter): 30.12 inches Hg (1020.0 mb)
Winds: from the N (360 degrees) at 14 MPH (12 knots; 6.2 m/s)
gusting to 26 MPH (23 knots; 11.8 m/s)
Visibility: 6 or more miles (10+ km)
Ceiling: at least 12,000 feet AGL
Clouds: few clouds at 1500 feet AGL
Weather: no significant weather observed at this time

METAR text: LPMA 251230Z 02012G25KT 300V060 9999 FEW015 24/10 Q1021
Conditions at: LPMA (FUNCHAL/MADEIRA , PT) observed 1230 UTC 25 May 2019
Temperature: 24.0°C (75°F)
Dewpoint: 10.0°C (50°F) [RH = 41%]
Pressure (altimeter): 30.15 inches Hg (1021.0 mb)
Winds: from the NNE (20 degrees) at 14 MPH (12 knots; 6.2 m/s)
gusting to 29 MPH (25 knots; 12.9 m/s)
Visibility: 6 or more miles (10+ km)
Ceiling: at least 12,000 feet AGL
Clouds: few clouds at 1500 feet AGL
Weather: no significant weather observed at this time

Forecast for: LPMA (FUNCHAL/MADEIRA , PT)
Text: TAF LPMA 251100Z 2512/2612 01020G30KT 9999 SCT015
Forecast period: 1200 UTC 25 May 2019 to 1200 UTC 26 May 2019
Forecast type: FROM: standard forecast or significant change
Winds: from the N (10 degrees) at 23 MPH (20 knots; 10.3 m/s)
gusting to 34 MPH (30 knots; 15.4 m/s)
Visibility: 6 or more miles 10+ km)
Ceiling: at least 12,000 feet AGL
Clouds: scattered clouds at 1500 feet AGL
Weather: no significant weather forecast for this period
Text: TEMPO 2512/2612 02017KT SCT015 BKN030
Forecast period: 1200 UTC 25 May 2019 to 1200 UTC 26 May 2019
Forecast type: TEMPORARY: The following changes expected for less than half the time period
Winds: from the NNE (20 degrees) at 20 MPH (17 knots; 8.7 m/s)
Visibility: missing
Ceiling: 3000 feet AGL
Clouds: scattered clouds at 1500 feet AGL
broken clouds at 3000 feet AGL
Weather: no significant weather forecast for this period
Text: PROB40
Forecast period: 1200 UTC 25 May 2019 to 0000 UTC 26 May 2019
Forecast type: TEMPORARY: The following changes expected for less than half the time period
Winds: from the N (10 degrees) at 29 MPH (25 knots; 12.9 m/s)
gusting to 40 MPH (35 knots; 18.0 m/s)
Visibility: missing
Ceiling: unknown
Clouds: missing
Weather: no significant weather forecast for this period